• Join FlightAware (Why Join?)
  • Login
  • US Flag 
08:07AM EDT


 

Airport Tracker/Info


-or-


 

Live Flight TrackerFlight Track Log ✈ SKW5550 ✈ 23-Oct-2013 ✈ KCOD - KDEN

Flight Track Log - Related Links

Times and Time Zones

All times are in EDT time to prevent confusion due to time zone crossing. See the SKW5550 flight status page for this flight to view local times or setup timezone preferences in your user account.

Time Position Orientation Groundspeed Altitude Reporting Facility
EDT Latitude Longitude Course Direction KTS MPH feet Rate Location/Type
10:17AM 44.0955 -108.5924 157° South  Level Estimated
10:18AM 44.0103 -108.5068 157° South  Level Estimated
10:19AM 43.9088 -108.4697 165° South  Level FlightAware Approximate
10:20AM 43.8240 -108.3837 156° South  Level Estimated
10:20AM 44.5486 -108.9828 157° South 175 201 6,700  Level Salt Lake Center
10:21AM 43.7033 -108.2617 142° Southeast  Level Estimated
10:21AM 44.5886 -108.9394 38° Northeast 183 211 8,900  Level Salt Lake Center
10:22AM 43.5903 -108.2153 163° South  Level FlightAware Approximate
10:22AM 44.5469 -108.8919 141° Southeast 221 254 10,800  Level Salt Lake Center
10:23AM 43.4955 -108.1185 144° Southeast  Level Estimated
10:23AM 44.4733 -108.8819 174° South 256 295 12,000  Level Salt Lake Center
10:24AM 43.4006 -108.0220 142° Southeast  Level Estimated
10:24AM 44.3744 -108.8231 157° South 309 356 14,500  Level Salt Lake Center
10:25AM 43.2922 -107.9579 157° South  Level FlightAware Approximate
10:25AM 44.2892 -108.7747 158° South 326 375 16,200  Level Salt Lake Center
10:26AM 44.1997 -108.7222 157° South 340 391 17,700 1,500 Climbing Salt Lake Center
10:27AM 44.1072 -108.6689 158° South 353 406 19,400 1,500 Climbing Salt Lake Center
10:28AM 44.0142 -108.6158 158° South 360 414 20,800 1,320 Climbing Salt Lake Center
10:29AM 43.9178 -108.5622 158° South 371 427 22,200 1,380 Climbing Salt Lake Center
10:30AM 43.7989 -108.4925 157° South 385 443 23,700 1,320 Climbing Salt Lake Center
10:31AM 43.6989 -108.4364 158° South 388 447 25,000 1,080 Climbing Salt Lake Center
10:32AM 43.5978 -108.3792 158° South 393 452 26,000 960 Climbing Salt Lake Center
10:33AM 43.4947 -108.3225 158° South 398 458 27,000 840 Climbing Salt Lake Center
10:34AM 43.4003 -108.2364 146° Southeast 406 467 27,800 720 Climbing Salt Lake Center
10:35AM 43.3103 -108.1392 142° Southeast 413 475 28,500 660 Climbing Salt Lake Center
10:36AM 43.2172 -108.0400 142° Southeast 418 481 29,200 780 Climbing Salt Lake Center
10:37AM 43.1047 -107.9211 142° Southeast 426 490 30,100 780 Climbing Salt Lake Center
10:38AM 43.0097 -107.8206 142° Southeast 430 495 30,800 420 Climbing Salt Lake Center
10:39AM 42.9214 -107.7294 143° Southeast 428 493 31,000 60 Climbing Salt Lake Center
10:40AM 42.8097 -107.6108 142° Southeast 446 513 31,000  Level Salt Lake Center
10:42AM 42.7117 -107.5114 143° Southeast 454 522 31,000  Level Salt Lake Center
10:43AM 42.5967 -107.3925 143° Southeast 461 531 31,000  Level Salt Lake Center
10:44AM 42.4981 -107.2917 143° Southeast 463 533 31,000  Level Salt Lake Center
10:45AM 42.4003 -107.1914 143° Southeast 462 532 31,000  Level Salt Lake Center
10:45AM 42.3186 -107.1067 142° Southeast 462 532 31,000  Level Denver Center
10:46AM 42.2203 -107.0086 144° Southeast 461 531 31,000  Level Denver Center
10:47AM 42.1053 -106.8947 144° Southeast 459 528 31,000  Level Denver Center
10:48AM 42.0067 -106.7969 144° Southeast 460 529 31,000  Level Denver Center
10:49AM 41.8906 -106.6836 144° Southeast 460 529 31,000  Level Denver Center
10:50AM 41.7936 -106.5861 143° Southeast 456 525 31,000  Level Denver Center
10:51AM 41.6814 -106.4761 144° Southeast 460 529 31,000  Level Denver Center
10:53AM 41.5833 -106.3806 144° Southeast 458 527 31,000  Level Denver Center
10:54AM 41.4686 -106.2694 144° Southeast 458 527 31,000  Level Denver Center
10:55AM 41.3700 -106.1728 144° Southeast 460 529 31,000  Level Denver Center
10:56AM 41.2561 -106.0639 144° Southeast 453 521 31,000  Level Denver Center
10:57AM 41.1567 -105.9689 144° Southeast 460 529 31,000  Level Denver Center
10:58AM 41.0406 -105.8569 144° Southeast 462 532 31,000 -420 Level Denver Center
10:59AM 40.9367 -105.7578 144° Southeast 461 531 30,200 -1,440 Descending Denver Center
11:00AM 40.8344 -105.6603 144° Southeast 457 526 28,100 -2,280 Descending Denver Center
11:01AM 40.7331 -105.5644 144° Southeast 448 516 25,600 -2,460 Descending Denver Center
11:02AM 40.6275 -105.4639 144° Southeast 466 536 23,100 -2,520 Descending Denver Center
11:03AM 40.5486 -105.3406 130° Southeast 445 512 20,500 -1,500 Descending Denver Center
11:04AM 40.4653 -105.2178 132° Southeast 390 449 20,000 -1,080 Descending Denver Center
11:05AM 40.3742 -105.1425 148° Southeast 362 417 18,300 -1,560 Descending Denver Center
11:06AM 40.2925 -105.0761 148° Southeast 343 395 16,800 -1,380 Descending Denver Center
11:07AM 40.2106 -105.0117 149° Southeast 316 364 15,500 -1,380 Descending Denver Center
11:08AM 40.1375 -104.9514 148° Southeast 309 356 14,000 -1,200 Descending Denver Center
11:09AM 40.0803 -104.8731 134° Southeast 300 345 13,000 -480 Descending Denver Center
11:10AM 40.0200 -104.7928 134° Southeast 289 333 13,000 -240 Level Denver Center
11:11AM 39.9656 -104.7189 134° Southeast 283 326 12,600 -1,020 Descending Denver Center
11:12AM 39.9592 -104.6172 95° East 261 300 11,000 -840 Descending Denver Center
11:13AM 39.9561 -104.5231 92° East 259 298 10,900 -660 Descending Denver Center
11:14AM 39.9500 -104.4167 94° East 248 285 9,600 -1,260 Descending Denver TRACON
11:15AM 39.9083 -104.3714 140° Southeast 251 289 8,400 -1,080 Descending Denver Center
11:16AM 39.8753 -104.4300 234° Southwest 213 245 7,600 -720 Descending Denver Center
11:17AM 39.8756 -104.5106 270° West 207 238 7,000 -780 Descending Denver Center
11:18AM 39.8833 -104.5833 278° West 153 176 5,900 -900 Descending Denver TRACON
11:19AM 39.8772 -104.6286 260° West 150 173 5,200 -780 Descending Denver Center